Metar Cercanos

 

LEPA - Palma De Mallorc, Spain
Distance from station: ONO 38km
Actualización: Tue, 20-Apr-2021 9:30am CEST
Few Clouds
Few Clouds
 Viento del varies
Viento: varies 4 km/h
Temperatura: 15°C
Rocío: 12°C
Humedad: 82%
Barómetro: 1015 hPa
Clouds: Few Clouds
Visibility: 10 km
Cloud details: Few Clouds 1524 m
2021/04/20 07:30 LEPA 200730Z VRB02KT 9999 FEW050 15/12 Q1015 NOSIG
LEMH - Mahon/Menorca Is, Spain
Distance from station: ENE 105km
Actualización: Tue, 20-Apr-2021 9:30am CEST
Few Clouds
Few Clouds
 Viento del SSE
Viento: SSE 11 km/h
Temperatura: 14°C
Rocío: 11°C
Humedad: 82%
Barómetro: 1016 hPa
Clouds: Few Clouds
Visibility: 10 km
Cloud details: Few Clouds 610 m
2021/04/20 07:30 LEMH 200730Z 15006KT 110V170 9999 FEW020 14/11 Q1016
 
LEIB - Ibiza/Es Codola, Spain
Distance from station: OSO 165km
Actualización: Tue, 20-Apr-2021 9:30am CEST
Few Clouds
Few Clouds
 Viento del SSO
Viento: SSO 4 km/h
Temperatura: 16°C
Rocío: 14°C
Humedad: 88%
Barómetro: 1014 hPa
Clouds: Few Clouds
Visibility: 10 km
Cloud details: Few Clouds 305 m
2021/04/20 07:30 LEIB 200730Z 21002KT 9999 FEW010 16/14 Q1014 NOSIG
LEBL - Barcelona Airpor, Spain
Distance from station: NNO 225km
Actualización: Tue, 20-Apr-2021 9:30am CEST
Few Clouds
Few Clouds
 Viento del NNO
Viento: NNO 13 km/h
Temperatura: 13°C
Rocío: 8°C
Humedad: 72%
Barómetro: 1015 hPa
Clouds: Few Clouds
Visibility: 10 km
Cloud details: Few Clouds 549 m
2021/04/20 07:30 LEBL 200730Z 33007KT 9999 FEW018 13/08 Q1015 NOSIG
 
LEVC - Valencia (civ/Mi, Spain
Distance from station: NO 188km
Actualización: Tue, 20-Apr-2021 9:30am CEST
Despejado
Despejado
 Viento del varies
Viento: varies 2 km/h
Temperatura: 14°C
Rocío: 9°C
Humedad: 72%
Barómetro: 1015 hPa
Resumen: Despejado
Visibility: greater than 10 km
2021/04/20 07:30 LEVC 200730Z VRB01KT CAVOK 14/09 Q1015 NOSIG
LEGE - Gerona/Costa Bra, Spain
Distance from station: N 276km
Actualización: Tue, 20-Apr-2021 9:30am CEST
Despejado
Despejado
 Viento del calm
Viento: Calma
Temperatura: 9°C
Rocío: 7°C
Humedad: 87%
Barómetro: 1015 hPa
Resumen: Despejado
Visibility: greater than 10 km
2021/04/20 07:30 LEGE 200730Z 00000KT CAVOK 09/07 Q1015
 
LEAL - Alicante/El Alte, Spain
Distance from station: OSO 344km
Actualización: Tue, 20-Apr-2021 9:30am CEST
Few Clouds
Few Clouds
 Viento del NE
Viento: NE 11 km/h
Temperatura: 16°C
Rocío: 13°C
Humedad: 83%
Barómetro: 1015 hPa
Clouds: Few Clouds
Visibility: 10 km
Cloud details: Few Clouds 457 m
2021/04/20 07:30 LEAL 200730Z 05006KT 020V080 9999 FEW015 16/13 Q1015 NOSIG
LEAM - Almeria Airport, Spain
Distance from station: SSO 56km
Actualización: Tue, 20-Apr-2021 9:30am CEST
Muy nuboso
Muy nuboso
 Viento del calm
Viento: Calma
Temperatura: 17°C
Rocío: 13°C
Humedad: 77%
Barómetro: 1014 hPa
Clouds: Muy nuboso
Visibility: 10 km
Cloud details: Muy nuboso 305 m
2021/04/20 07:30 LEAM 200730Z 00000KT 9999 BKN010 17/13 Q1014
 
LEZG - Zaragoza (mil/Ci, Spain
Distance from station: NO 431km
Actualización: Tue, 20-Apr-2021 9:30am CEST
Cubierto
Cubierto
 Viento del varies
Viento: varies 4 km/h
Temperatura: 12°C
Rocío: 8°C
Humedad: 77%
Barómetro: 1015 hPa
Clouds: Cubierto
Visibility: 10 km
Cloud details: Cubierto 2134 m
2021/04/20 07:30 LEZG 200730Z VRB02KT 9999 OVC070 12/08 Q1015
LEMD - Madrid/Barajas, Spain
Distance from station: ONO 234km
Actualización: Tue, 20-Apr-2021 9:30am CEST
Parcialmente nuboso
Parcialmente nuboso
 Viento del N
Viento: N 7 km/h
Temperatura: 11°C
Rocío: 9°C
Humedad: 88%
Barómetro: 1014 hPa
Clouds: Parcialmente nuboso
Visibility: 10 km
Cloud details: Parcialmente nuboso 1829 m
2021/04/20 07:30 LEMD 200730Z 36004KT 330V030 9999 SCT060 11/09 Q1014 NOSIG
 
LEGR - Granada Airport, Spain
Distance from station: OSO 62km
Actualización: Tue, 20-Apr-2021 9:30am CEST
Despejado
Despejado
 Viento del varies
Viento: varies 2 km/h
Temperatura: 11°C
Rocío: 9°C
Humedad: 88%
Barómetro: 1016 hPa
Resumen: Despejado
Visibility: greater than 10 km
2021/04/20 07:30 LEGR 200730Z VRB01KT CAVOK 11/09 Q1016
LEMG - Malaga (civ/Mil), Spain
Distance from station: OSO 227km
Actualización: Tue, 20-Apr-2021 9:30am CEST
Despejado
Despejado
 Viento del NO
Viento: NO 13 km/h
Temperatura: 16°C
Rocío: 11°C
Humedad: 72%
Barómetro: 1014 hPa
Resumen: Despejado
Visibility: greater than 10 km
2021/04/20 07:30 LEMG 200730Z 31007KT CAVOK 16/11 Q1014 NOSIG
 
LEZL - Sevilla (civ/Mil, Spain
Distance from station: S 318km
Actualización: Tue, 20-Apr-2021 9:30am CEST
Despejado
Despejado
 Viento del NO
Viento: NO 7 km/h
Temperatura: 14°C
Rocío: 10°C
Humedad: 77%
Barómetro: 1016 hPa
Resumen: Despejado
Visibility: greater than 10 km
2021/04/20 07:30 LEZL 200730Z 31004KT 280V340 CAVOK 14/10 Q1016 NOSIG
LEVT - Vitoria, Spain
Distance from station: NO 226km
Actualización: Tue, 20-Apr-2021 9:30am CEST
Muy nuboso
Muy nuboso
 Viento del calm
Viento: Calma
Temperatura: 8°C
Rocío: 4°C
Humedad: 76%
Barómetro: 1016 hPa
Clouds: Muy nuboso
Visibility: 10 km
Cloud details: Muy nuboso 1676 m
2021/04/20 07:30 LEVT 200730Z 00000KT 9999 BKN055 08/04 Q1016
 
LEBB - Bilbao/Sondica, Spain
Distance from station: NNO 235km
Actualización: Tue, 20-Apr-2021 9:30am CEST
Few Clouds
Few Clouds
 Viento del varies
Viento: varies 4 km/h
Temperatura: 11°C
Rocío: 7°C
Humedad: 77%
Barómetro: 1016 hPa
Clouds: Few Clouds
Visibility: 10 km
Cloud details: Few Clouds 2134 m
2021/04/20 07:30 LEBB 200730Z VRB02KT 9999 FEW070 11/07 Q1016 NOSIG
LESO - San Sebastian/Fu, Spain
Distance from station: N 231km
Actualización: Tue, 20-Apr-2021 9:30am CEST
Despejado
Despejado
 Viento del S
Viento: S 6 km/h
Temperatura: 13°C
Rocío: 8°C
Humedad: 72%
Barómetro: 1015 hPa
Resumen: Despejado
Visibility: greater than 10 km
2021/04/20 07:30 LESO 200730Z 19003KT 160V220 CAVOK 13/08 Q1015
 
LEVD - Valladolid(Mil/C, Spain
Distance from station: ONO 239km
Actualización: Tue, 20-Apr-2021 9:30am CEST
Cubierto
Cubierto
 Viento del varies
Viento: varies 2 km/h
Temperatura: 9°C
Rocío: 8°C
Humedad: 94%
Barómetro: 1014 hPa
Clouds: Cubierto
Visibility: 10 km
Cloud details: Cubierto 1006 m
2021/04/20 07:30 LEVD 200730Z VRB01KT 9999 OVC033 09/08 Q1014
LESA - Salamanca (civ/M, Spain
Distance from station: ONO 349km
Actualización: Tue, 20-Apr-2021 9:30am CEST
Parcialmente nuboso
Parcialmente nuboso
 Viento del O
Viento: O 11 km/h
Temperatura: 9°C
Sensación frio: 7°C
Rocío: 5°C
Humedad: 76%
Barómetro: 1015 hPa
Clouds: Parcialmente nuboso
Visibility: 10 km
Cloud details: Parcialmente nuboso 1372 m
2021/04/20 07:30 LESA 200730Z 26006KT 9999 SCT045 09/05 Q1015
 
LEXJ - Santander/Paraya, Spain
Distance from station: NNO 247km
Actualización: Tue, 20-Apr-2021 9:30am CEST
Muy nuboso
Muy nuboso
 Viento del SO
Viento: SO 7 km/h
Temperatura: 14°C
Rocío: 12°C
Humedad: 88%
Barómetro: 1016 hPa
Clouds: Muy nuboso
Visibility: 10 km
Cloud details: Muy nuboso 2316 m
2021/04/20 07:30 LEXJ 200730Z 23004KT 190V260 9999 BKN076 14/12 Q1016
LEAS - Asturias/Aviles, Spain
Distance from station: NO 214km
Actualización: Tue, 20-Apr-2021 9:30am CEST
Parcialmente nuboso
Parcialmente nuboso
 Viento del OSO
Viento: OSO 11 km/h
Temperatura: 11°C
Rocío: 8°C
Humedad: 82%
Barómetro: 1015 hPa
Clouds: Parcialmente nuboso
Visibility: 10 km
Cloud details: Few Clouds 1646 m
Parcialmente nuboso 2591 m
2021/04/20 07:30 LEAS 200730Z 24006KT 9999 FEW054 SCT085 11/08 Q1015 NOSIG
 
LECO - La Coruna/Alvedr, Spain
Distance from station: ONO 222km
Actualización: Tue, 20-Apr-2021 9:30am CEST
Lluvia débil, Muy nuboso
Lluvia débil, Muy nuboso
 Viento del SSE
Viento: SSE 7 km/h
Temperatura: 11°C
Rocío: 11°C
Humedad: 100%
Barómetro: 1015 hPa
Resumen: Lluvia débil
Clouds: Muy nuboso
Visibility: 9 km
Cloud details: Few Clouds 61 m
Parcialmente nuboso 427 m
Muy nuboso 671 m
2021/04/20 07:30 LECO 200730Z 16004KT 9000 3000S -RA FEW002 SCT014 BKN022 11/11 Q1015 TEMPO 3000 RA BKN010
LEVX - Vigo/Peinador, Spain
Distance from station: O 214km
Actualización: Tue, 20-Apr-2021 9:30am CEST
Patches of fog, Muy nuboso
Patches of fog, Muy nuboso
 Viento del SSO
Viento: SSO 9 km/h
Temperatura: 10°C
Sensación frio: 9°C
Rocío: 9°C
Humedad: 94%
Barómetro: 1016 hPa
Resumen: Patches of Fog
Clouds: Muy nuboso
Visibility: 10 km
Cloud details: Parcialmente nuboso 366 m
Muy nuboso 732 m
Muy nuboso 1067 m
2021/04/20 07:30 LEVX 200730Z 21005KT 9999 1500SE BCFG SCT012 BKN024 BKN035 10/09 Q1016 TEMPO 3000 RADZ BKN010